Time;durP1;ratioP1;P1;durP2;ratioP2;P2;SDS_P1;SDS_P2;PMS_P1;PMS_P2;Temp;Humidity;BMP_temperature;BMP_pressure;BME280_temperature;BME280_humidity;BME280_pressure;Samples;Min_cycle;Max_cycle;Signal;HPM_P1;HPM_P2
2024/01/04 00:01:19;;;;;;;157.47;28.80;;;5.20;99.90;;;;;;5036265;28;20651;-62
2024/01/04 00:03:47;;;;;;;169.17;29.13;;;5.30;99.90;;;;;;5052857;28;20206;-62
2024/01/04 00:06:17;;;;;;;69.43;25.20;;;5.30;99.90;;;;;;5032270;28;20543;-62
2024/01/04 00:08:46;;;;;;;79.13;27.37;;;5.30;99.90;;;;;;5018859;28;20297;-62
2024/01/04 00:11:14;;;;;;;86.60;26.60;;;5.30;99.90;;;;;;5040259;28;20227;-62
2024/01/04 00:13:43;;;;;;;101.20;25.40;;;5.40;99.90;;;;;;5037204;28;20296;-62
2024/01/04 00:16:12;;;;;;;179.73;28.33;;;5.40;99.90;;;;;;5018110;28;21067;-61
2024/01/04 00:18:40;;;;;;;193.23;27.87;;;5.40;99.90;;;;;;5029773;28;20603;-62
2024/01/04 00:21:13;;;;;;;149.87;26.97;;;5.50;99.90;;;;;;5053085;28;20606;-61
2024/01/04 00:23:42;;;;;;;114.27;25.87;;;5.50;99.90;;;;;;5050585;28;20584;-63
2024/01/04 00:26:10;;;;;;;107.30;25.00;;;5.50;99.90;;;;;;5050347;28;20194;-62
2024/01/04 00:28:40;;;;;;;72.03;23.87;;;5.50;99.90;;;;;;5033272;28;20589;-61
2024/01/04 00:31:08;;;;;;;96.80;24.27;;;5.50;99.90;;;;;;5034172;28;20229;-62
2024/01/04 00:33:40;;;;;;;111.10;24.60;;;5.60;99.90;;;;;;5051548;28;20508;-62
2024/01/04 00:36:09;;;;;;;142.40;24.23;;;5.60;99.90;;;;;;5052464;28;20547;-61
2024/01/04 00:38:38;;;;;;;121.13;22.93;;;5.70;99.90;;;;;;5048238;28;20214;-61
2024/01/04 00:41:07;;;;;;;111.20;24.03;;;5.80;99.90;;;;;;5035420;28;20195;-62
2024/01/04 00:43:37;;;;;;;142.07;24.13;;;5.80;99.90;;;;;;5048318;28;20558;-61
2024/01/04 00:46:06;;;;;;;222.90;30.30;;;5.80;99.90;;;;;;5040006;28;20538;-62
2024/01/04 00:48:34;;;;;;;56.70;21.70;;;5.90;99.90;;;;;;5038850;28;20274;-62
2024/01/04 00:51:03;;;;;;;153.43;26.53;;;5.80;99.90;;;;;;5052904;28;20213;-61
2024/01/04 00:53:32;;;;;;;147.07;24.63;;;5.90;99.90;;;;;;5038906;28;20595;-61
2024/01/04 00:56:00;;;;;;;311.00;31.97;;;5.90;99.90;;;;;;5053579;28;20229;-63
2024/01/04 00:58:29;;;;;;;220.47;31.33;;;5.90;99.90;;;;;;5021781;28;20220;-61
2024/01/04 01:00:57;;;;;;;110.17;23.53;;;5.90;99.90;;;;;;5054212;28;20509;-62
2024/01/04 01:03:27;;;;;;;243.90;30.77;;;6.00;99.90;;;;;;5053342;28;20550;-61
2024/01/04 01:05:56;;;;;;;241.63;30.00;;;6.00;99.90;;;;;;5037913;28;20198;-61
2024/01/04 01:08:27;;;;;;;87.83;24.20;;;6.00;99.90;;;;;;5056451;28;20666;-62
2024/01/04 01:10:55;;;;;;;208.07;29.53;;;6.00;99.90;;;;;;5049029;28;20195;-61
2024/01/04 01:13:23;;;;;;;51.30;24.37;;;6.10;99.90;;;;;;5060841;28;20329;-61
2024/01/04 01:15:51;;;;;;;145.53;27.90;;;6.10;99.90;;;;;;5057000;28;20650;-62
2024/01/04 01:18:19;;;;;;;170.53;31.57;;;6.10;99.90;;;;;;5056663;28;20204;-62
2024/01/04 01:20:49;;;;;;;64.57;26.43;;;6.20;99.90;;;;;;5054955;28;20551;-61
2024/01/04 01:23:17;;;;;;;85.43;27.60;;;6.30;99.90;;;;;;5056769;28;20598;-62
2024/01/04 01:25:46;;;;;;;47.23;26.70;;;6.30;99.90;;;;;;5037858;28;20296;-61
2024/01/04 01:28:14;;;;;;;64.20;24.77;;;6.40;99.90;;;;;;5034829;28;20704;-63
2024/01/04 01:30:44;;;;;;;71.63;26.13;;;6.40;99.90;;;;;;5052561;28;20198;-61
2024/01/04 01:33:13;;;;;;;80.47;27.57;;;6.50;99.90;;;;;;5033688;28;20568;-61
2024/01/04 01:35:41;;;;;;;91.27;28.17;;;6.50;99.90;;;;;;5052936;28;20279;-62
2024/01/04 01:38:09;;;;;;;124.67;28.47;;;6.60;99.90;;;;;;5050156;28;20307;-62
2024/01/04 01:40:38;;;;;;;87.23;28.93;;;6.60;99.90;;;;;;5050922;28;20557;-62
2024/01/04 01:43:06;;;;;;;80.87;27.90;;;6.60;99.90;;;;;;5037510;28;20213;-62
2024/01/04 01:45:34;;;;;;;90.47;26.27;;;6.60;99.90;;;;;;5033438;28;20195;-61
2024/01/04 01:48:04;;;;;;;55.10;25.13;;;6.70;99.90;;;;;;5036889;28;20225;-61
2024/01/04 01:50:33;;;;;;;80.43;25.53;;;6.60;99.90;;;;;;5051344;28;20195;-62
2024/01/04 01:53:01;;;;;;;101.33;25.93;;;6.60;99.90;;;;;;5048199;28;20516;-62
2024/01/04 01:55:31;;;;;;;129.97;26.33;;;6.60;99.90;;;;;;5053386;28;20225;-61
2024/01/04 01:58:00;;;;;;;150.97;27.77;;;6.70;99.90;;;;;;5032925;28;20529;-62
2024/01/04 02:00:28;;;;;;;100.10;27.60;;;6.70;99.90;;;;;;5049123;28;20218;-62
2024/01/04 02:02:59;;;;;;;111.77;27.50;;;6.70;99.90;;;;;;5052727;28;20237;-62
2024/01/04 02:05:28;;;;;;;58.00;25.93;;;6.70;99.90;;;;;;5053336;28;20265;-61
2024/01/04 02:07:57;;;;;;;93.80;25.23;;;6.70;99.90;;;;;;5036179;28;20196;-61
2024/01/04 02:10:26;;;;;;;59.03;22.57;;;6.70;99.90;;;;;;5032146;28;20525;-61
2024/01/04 02:12:54;;;;;;;56.30;23.07;;;6.70;99.90;;;;;;5021208;28;20242;-61
2024/01/04 02:15:23;;;;;;;66.63;24.87;;;6.70;99.90;;;;;;5051552;28;20315;-62
2024/01/04 02:17:52;;;;;;;51.67;22.57;;;6.70;99.90;;;;;;5027517;28;20644;-62
2024/01/04 02:20:21;;;;;;;58.13;23.60;;;6.70;99.90;;;;;;5048318;28;20225;-61
2024/01/04 02:22:51;;;;;;;44.87;19.67;;;6.70;99.90;;;;;;5052055;28;20547;-62
2024/01/04 02:25:20;;;;;;;78.17;21.90;;;6.70;99.90;;;;;;5040962;28;20210;-61
2024/01/04 02:27:48;;;;;;;85.87;22.03;;;6.70;99.90;;;;;;5048920;28;20687;-62
2024/01/04 02:30:16;;;;;;;57.27;21.43;;;6.70;99.90;;;;;;5038754;28;20198;-62
2024/01/04 02:32:45;;;;;;;87.83;23.50;;;6.70;99.90;;;;;;5034563;28;20275;-62
2024/01/04 02:35:13;;;;;;;47.47;19.60;;;6.70;99.90;;;;;;5037443;28;20202;-61
2024/01/04 02:37:41;;;;;;;65.30;21.60;;;6.60;99.90;;;;;;5041337;28;20231;-62
2024/01/04 02:40:10;;;;;;;84.33;20.97;;;6.60;99.90;;;;;;5053628;28;20884;-62
2024/01/04 02:42:39;;;;;;;80.40;20.97;;;6.60;99.90;;;;;;5022536;28;21385;-62
2024/01/04 02:45:07;;;;;;;54.63;18.83;;;6.60;99.90;;;;;;5032959;28;20533;-62
2024/01/04 02:47:36;;;;;;;41.50;19.30;;;6.50;99.90;;;;;;5034589;28;20710;-61
2024/01/04 02:50:05;;;;;;;63.33;21.50;;;6.50;99.90;;;;;;5052833;28;20535;-61
2024/01/04 02:52:34;;;;;;;45.80;19.63;;;6.40;99.90;;;;;;5053337;28;20335;-61
2024/01/04 02:55:02;;;;;;;51.03;19.40;;;6.40;99.90;;;;;;5054064;28;20221;-62
2024/01/04 02:57:30;;;;;;;73.77;21.37;;;6.40;99.90;;;;;;5053258;28;20201;-62
2024/01/04 02:59:59;;;;;;;51.13;18.73;;;6.40;99.90;;;;;;5034927;28;20549;-61
2024/01/04 03:02:28;;;;;;;70.77;20.33;;;6.30;99.90;;;;;;5038766;28;20215;-62
2024/01/04 03:04:56;;;;;;;55.10;20.17;;;6.30;99.90;;;;;;5051759;28;20544;-61
2024/01/04 03:07:24;;;;;;;45.80;18.33;;;6.30;99.90;;;;;;5038188;28;20225;-62
2024/01/04 03:09:54;;;;;;;65.27;18.77;;;6.20;99.90;;;;;;5037631;28;20220;-61
2024/01/04 03:12:23;;;;;;;50.97;19.70;;;6.20;99.90;;;;;;5033805;28;20948;-62
2024/01/04 03:14:51;;;;;;;69.53;21.83;;;6.20;99.90;;;;;;5051797;28;20528;-62
2024/01/04 03:17:19;;;;;;;42.60;19.47;;;6.10;99.90;;;;;;5047427;28;21309;-61
2024/01/04 03:19:47;;;;;;;42.00;19.53;;;6.10;99.90;;;;;;5048206;28;20191;-61
2024/01/04 03:22:15;;;;;;;51.00;20.90;;;6.00;99.90;;;;;;5034243;28;20212;-62
2024/01/04 03:24:44;;;;;;;45.93;21.27;;;6.10;99.90;;;;;;5035156;28;20549;-61
2024/01/04 03:27:12;;;;;;;42.43;20.20;;;6.00;99.90;;;;;;5049676;28;20608;-62
2024/01/04 03:29:42;;;;;;;40.67;18.73;;;6.00;99.90;;;;;;5017129;28;20203;-62
2024/01/04 03:32:10;;;;;;;53.20;20.03;;;5.90;99.90;;;;;;5033310;28;20202;-62
2024/01/04 03:34:38;;;;;;;43.93;19.33;;;5.90;99.90;;;;;;5026048;28;20195;-61
2024/01/04 03:37:07;;;;;;;34.47;21.57;;;5.90;99.90;;;;;;5027164;28;20547;-61
2024/01/04 03:39:35;;;;;;;38.93;21.07;;;5.90;99.90;;;;;;5059209;28;20197;-61
2024/01/04 03:42:04;;;;;;;45.93;21.87;;;5.80;99.90;;;;;;5060188;28;20221;-62
2024/01/04 03:44:32;;;;;;;50.87;22.93;;;5.80;99.90;;;;;;5028621;28;20210;-62
2024/01/04 03:47:00;;;;;;;42.47;22.97;;;5.80;99.90;;;;;;5053404;28;20557;-61
2024/01/04 03:49:28;;;;;;;86.70;23.33;;;5.80;99.90;;;;;;5031866;28;20199;-62
2024/01/04 03:51:57;;;;;;;46.63;23.47;;;5.80;99.90;;;;;;5052355;28;20204;-61
2024/01/04 03:54:25;;;;;;;77.73;23.87;;;5.80;99.90;;;;;;5045381;28;20206;-61
2024/01/04 03:56:54;;;;;;;57.83;23.37;;;5.80;99.90;;;;;;5053536;28;20336;-62
2024/01/04 03:59:23;;;;;;;53.63;23.93;;;5.80;99.90;;;;;;5050462;28;20257;-62
2024/01/04 04:01:51;;;;;;;76.70;23.33;;;5.80;99.90;;;;;;5053405;28;20202;-63
2024/01/04 04:04:19;;;;;;;54.97;23.07;;;5.80;99.90;;;;;;5052964;28;20554;-62
2024/01/04 04:06:47;;;;;;;77.40;24.03;;;5.70;99.90;;;;;;5051577;28;20195;-61
2024/01/04 04:09:18;;;;;;;69.07;24.70;;;5.80;99.90;;;;;;5052449;28;20198;-61
2024/01/04 04:11:48;;;;;;;63.87;25.00;;;5.80;99.90;;;;;;5048525;28;20340;-62
2024/01/04 04:14:17;;;;;;;73.77;24.13;;;5.80;99.90;;;;;;5053300;28;20233;-61
2024/01/04 04:16:45;;;;;;;49.40;24.87;;;5.80;99.90;;;;;;5031598;28;20199;-62
2024/01/04 04:19:15;;;;;;;61.00;24.53;;;5.80;99.90;;;;;;5051607;28;20245;-62
2024/01/04 04:21:43;;;;;;;64.10;24.50;;;5.80;99.90;;;;;;5032897;28;20709;-61
2024/01/04 04:24:12;;;;;;;63.97;25.67;;;5.80;99.90;;;;;;5051884;28;20261;-62
2024/01/04 04:26:40;;;;;;;48.13;24.60;;;5.80;99.90;;;;;;5052922;28;20546;-62
2024/01/04 04:29:08;;;;;;;54.77;22.77;;;5.80;99.90;;;;;;5034189;28;20608;-62
2024/01/04 04:31:37;;;;;;;72.03;23.73;;;5.80;99.90;;;;;;5016578;28;20980;-62
2024/01/04 04:34:06;;;;;;;65.00;23.07;;;5.80;99.90;;;;;;5048541;28;20633;-62
2024/01/04 04:36:34;;;;;;;60.13;24.53;;;5.80;99.90;;;;;;5028556;28;20194;-62
2024/01/04 04:39:02;;;;;;;51.63;23.80;;;5.80;99.90;;;;;;5030559;28;20460;-62
2024/01/04 04:41:32;;;;;;;65.43;24.47;;;5.80;99.90;;;;;;5048945;28;20344;-61
2024/01/04 04:44:00;;;;;;;52.07;24.37;;;5.80;99.90;;;;;;5033933;28;20260;-61
2024/01/04 04:46:28;;;;;;;76.60;24.07;;;5.80;99.90;;;;;;5033038;28;20532;-62
2024/01/04 04:48:58;;;;;;;61.40;23.93;;;5.80;99.90;;;;;;5034869;28;20198;-61
2024/01/04 04:51:27;;;;;;;65.17;24.73;;;5.80;99.90;;;;;;5051615;28;20510;-62
2024/01/04 04:53:55;;;;;;;57.40;23.47;;;5.80;99.90;;;;;;5042573;28;20229;-61
2024/01/04 04:56:24;;;;;;;58.20;25.30;;;5.80;99.90;;;;;;5039423;28;20241;-62
2024/01/04 04:58:52;;;;;;;69.13;24.87;;;5.80;99.90;;;;;;5024755;28;20224;-63
2024/01/04 05:01:20;;;;;;;77.33;26.10;;;5.80;99.90;;;;;;5037051;28;20288;-62
2024/01/04 05:03:49;;;;;;;50.00;24.27;;;5.80;99.90;;;;;;5033810;28;20230;-61
2024/01/04 05:06:18;;;;;;;124.90;29.60;;;5.80;99.90;;;;;;5016118;28;20344;-61
2024/01/04 05:08:46;;;;;;;63.03;23.67;;;5.80;99.90;;;;;;5034175;28;20547;-62
2024/01/04 05:11:15;;;;;;;50.90;23.73;;;5.80;99.90;;;;;;5053493;28;20199;-62
2024/01/04 05:13:44;;;;;;;72.27;24.83;;;5.90;99.90;;;;;;5051046;28;20205;-61
2024/01/04 05:16:13;;;;;;;67.33;25.40;;;5.90;99.90;;;;;;5051676;28;20601;-61
2024/01/04 05:18:41;;;;;;;73.27;26.40;;;5.90;99.90;;;;;;5050655;28;20301;-61
2024/01/04 05:21:10;;;;;;;64.90;24.53;;;5.90;99.90;;;;;;5051075;28;20593;-61
2024/01/04 05:23:39;;;;;;;72.80;25.90;;;6.00;99.90;;;;;;5032733;28;20544;-61
2024/01/04 05:26:07;;;;;;;71.63;25.80;;;6.00;99.90;;;;;;5031856;28;20534;-62
2024/01/04 05:28:35;;;;;;;71.33;24.53;;;6.00;99.90;;;;;;5024648;28;20226;-62
2024/01/04 05:31:03;;;;;;;81.13;27.30;;;6.00;99.90;;;;;;5049477;28;20210;-62
2024/01/04 05:33:32;;;;;;;60.63;24.43;;;6.00;99.90;;;;;;5055264;28;20621;-61
2024/01/04 05:36:00;;;;;;;72.20;25.97;;;6.00;99.90;;;;;;5020721;28;20765;-61
2024/01/04 05:38:28;;;;;;;54.87;23.87;;;6.00;99.90;;;;;;5038254;28;20293;-62
2024/01/04 05:40:56;;;;;;;110.23;25.37;;;6.00;99.90;;;;;;5033078;28;20233;-62
2024/01/04 05:43:26;;;;;;;102.57;24.33;;;6.00;99.90;;;;;;5036737;28;20228;-62
2024/01/04 05:45:55;;;;;;;105.40;25.67;;;6.00;99.90;;;;;;5037095;28;20546;-62
2024/01/04 05:48:23;;;;;;;66.90;24.03;;;6.00;99.90;;;;;;5037895;28;20355;-62
2024/01/04 05:50:54;;;;;;;42.40;21.87;;;6.00;99.90;;;;;;5050287;28;20360;-62
2024/01/04 05:53:22;;;;;;;103.23;24.77;;;6.00;99.90;;;;;;5021453;28;20206;-61
2024/01/04 05:55:51;;;;;;;78.57;23.23;;;5.90;99.90;;;;;;5043621;28;20244;-62
2024/01/04 05:58:19;;;;;;;91.13;25.00;;;6.00;99.90;;;;;;5037198;28;20610;-62
2024/01/04 06:00:47;;;;;;;70.90;24.27;;;6.00;99.90;;;;;;5020160;28;20294;-61
2024/01/04 06:03:17;;;;;;;55.57;22.50;;;5.90;99.90;;;;;;5036525;28;20657;-61
2024/01/04 06:05:45;;;;;;;87.37;25.00;;;5.90;99.90;;;;;;5053590;28;20285;-62
2024/01/04 06:08:13;;;;;;;107.33;24.57;;;5.90;99.90;;;;;;5062495;28;20202;-62
2024/01/04 06:10:42;;;;;;;89.37;24.03;;;5.80;99.90;;;;;;5061922;28;20622;-62
2024/01/04 06:13:10;;;;;;;70.57;23.87;;;5.80;99.90;;;;;;5054553;28;20249;-61
2024/01/04 06:15:39;;;;;;;93.17;23.70;;;5.70;99.90;;;;;;5038673;28;20512;-62
2024/01/04 06:18:08;;;;;;;117.47;23.83;;;5.70;99.90;;;;;;5037279;28;20599;-62
2024/01/04 06:20:38;;;;;;;105.90;22.87;;;5.70;99.90;;;;;;5037773;28;20222;-62
2024/01/04 06:23:07;;;;;;;117.33;25.57;;;5.60;99.90;;;;;;5034851;28;20206;-62
2024/01/04 06:25:35;;;;;;;64.70;24.27;;;5.60;99.90;;;;;;5037724;28;20257;-62
2024/01/04 06:28:03;;;;;;;63.33;23.70;;;5.60;99.90;;;;;;5054235;28;20212;-62
2024/01/04 06:30:34;;;;;;;103.83;25.00;;;5.60;99.90;;;;;;5053235;28;20523;-62
2024/01/04 06:33:02;;;;;;;58.97;23.23;;;5.60;99.90;;;;;;5035564;28;20310;-61
2024/01/04 06:35:31;;;;;;;42.80;21.87;;;5.60;99.90;;;;;;5038261;28;20551;-61
2024/01/04 06:37:59;;;;;;;69.00;22.53;;;5.60;99.90;;;;;;5050383;28;20191;-62
2024/01/04 06:40:28;;;;;;;57.93;21.77;;;5.60;99.90;;;;;;5055822;28;20538;-62
2024/01/04 06:42:56;;;;;;;46.67;23.40;;;5.60;99.90;;;;;;5036964;28;20607;-62
2024/01/04 06:45:25;;;;;;;74.83;22.43;;;5.60;99.90;;;;;;5035061;28;20240;-61
2024/01/04 06:47:54;;;;;;;32.23;20.33;;;5.60;99.90;;;;;;5043485;28;20195;-62
2024/01/04 06:50:23;;;;;;;38.67;20.83;;;5.60;99.90;;;;;;5037573;28;20336;-62
2024/01/04 06:52:51;;;;;;;41.83;21.40;;;5.50;99.90;;;;;;5050120;28;20529;-63
2024/01/04 06:55:20;;;;;;;53.40;22.20;;;5.50;99.90;;;;;;5036810;28;20280;-62
2024/01/04 06:57:47;;;;;;;32.27;20.00;;;5.50;99.90;;;;;;5053133;28;20220;-61
2024/01/04 07:00:17;;;;;;;47.27;21.37;;;5.50;99.90;;;;;;5033160;28;20293;-61
2024/01/04 07:02:46;;;;;;;32.73;19.00;;;5.50;99.90;;;;;;5052426;28;20608;-61
2024/01/04 07:05:14;;;;;;;50.10;18.90;;;5.50;99.90;;;;;;5017374;28;20554;-61
2024/01/04 07:07:42;;;;;;;45.23;21.57;;;5.50;99.90;;;;;;5054195;28;20288;-62
2024/01/04 07:10:10;;;;;;;35.83;18.60;;;5.40;99.90;;;;;;5048391;28;20266;-62
2024/01/04 07:12:41;;;;;;;39.40;20.27;;;5.40;99.90;;;;;;5054017;28;20317;-62
2024/01/04 07:15:13;;;;;;;32.83;18.30;;;5.30;99.90;;;;;;5035717;28;20221;-62
2024/01/04 07:17:42;;;;;;;38.00;18.13;;;5.30;99.90;;;;;;5051376;28;20273;-62
2024/01/04 07:20:11;;;;;;;33.27;18.73;;;5.30;99.90;;;;;;5054530;28;20292;-62
2024/01/04 07:22:39;;;;;;;28.07;17.83;;;5.30;99.90;;;;;;5039791;28;20229;-62
2024/01/04 07:25:08;;;;;;;47.20;19.47;;;5.30;99.90;;;;;;5053506;28;20226;-63
2024/01/04 07:27:36;;;;;;;52.97;17.73;;;5.30;99.90;;;;;;5054062;28;20193;-62
2024/01/04 07:30:05;;;;;;;50.73;18.50;;;5.30;99.90;;;;;;5028809;28;20205;-62
2024/01/04 07:32:34;;;;;;;42.60;18.20;;;5.30;99.90;;;;;;5032397;28;20202;-63
2024/01/04 07:35:03;;;;;;;33.00;18.10;;;5.30;99.90;;;;;;5036732;28;20242;-62
2024/01/04 07:37:44;;;;;;;37.87;18.90;;;5.30;99.90;;;;;;5034352;28;20573;-62
2024/01/04 07:40:12;;;;;;;34.27;18.43;;;5.30;99.90;;;;;;5051107;28;20271;-62
2024/01/04 07:42:42;;;;;;;27.60;18.60;;;5.30;99.90;;;;;;5036300;28;20607;-62
2024/01/04 07:45:11;;;;;;;24.20;17.73;;;5.30;99.90;;;;;;5047213;28;20242;-62
2024/01/04 07:47:40;;;;;;;28.63;17.33;;;5.30;99.90;;;;;;5051760;28;20599;-62
2024/01/04 07:50:11;;;;;;;26.37;18.00;;;5.30;99.90;;;;;;5054595;28;20288;-63
2024/01/04 07:52:40;;;;;;;26.97;17.83;;;5.30;99.90;;;;;;5034474;28;20213;-62
2024/01/04 07:55:09;;;;;;;24.23;18.80;;;5.30;99.90;;;;;;5043448;28;20220;-62
2024/01/04 07:57:38;;;;;;;23.77;17.63;;;5.30;99.90;;;;;;5050453;28;20237;-62
2024/01/04 08:00:08;;;;;;;26.20;18.13;;;5.40;99.90;;;;;;5053236;28;20605;-62
2024/01/04 08:02:41;;;;;;;26.33;18.47;;;5.40;99.90;;;;;;5034985;28;20276;-62
2024/01/04 08:05:13;;;;;;;25.47;18.37;;;5.40;99.90;;;;;;5052455;28;20558;-62
2024/01/04 08:07:43;;;;;;;30.30;20.17;;;5.50;99.90;;;;;;5052585;28;20550;-63
2024/01/04 08:10:12;;;;;;;29.33;20.77;;;5.50;99.90;;;;;;5034544;28;20209;-62
2024/01/04 08:12:41;;;;;;;29.00;20.47;;;5.50;99.90;;;;;;5053070;28;20634;-62
2024/01/04 08:15:12;;;;;;;27.50;19.63;;;5.60;99.90;;;;;;5035991;28;20222;-62
2024/01/04 08:17:40;;;;;;;29.90;20.97;;;5.60;99.90;;;;;;5051822;28;20228;-62
2024/01/04 08:20:10;;;;;;;30.93;20.77;;;5.70;99.90;;;;;;5030893;28;20234;-62
2024/01/04 08:22:38;;;;;;;27.03;19.97;;;5.70;99.90;;;;;;5052615;28;20528;-62
2024/01/04 08:25:08;;;;;;;29.80;21.20;;;5.80;99.90;;;;;;5050740;28;20329;-62
2024/01/04 08:27:36;;;;;;;33.27;20.87;;;5.90;99.90;;;;;;5016964;28;20324;-62
2024/01/04 08:30:06;;;;;;;25.93;19.93;;;5.90;99.90;;;;;;5028448;28;20262;-62
2024/01/04 08:32:35;;;;;;;36.70;22.03;;;6.00;99.90;;;;;;5036473;28;20640;-62
2024/01/04 08:35:04;;;;;;;31.93;21.33;;;6.10;99.90;;;;;;5042859;28;20769;-62
2024/01/04 08:37:33;;;;;;;28.57;20.03;;;6.10;99.90;;;;;;5037436;28;20603;-63
2024/01/04 08:40:01;;;;;;;30.90;19.83;;;6.20;99.90;;;;;;5018043;28;20570;-62
2024/01/04 08:42:30;;;;;;;28.53;19.13;;;6.30;99.90;;;;;;5033313;28;20324;-62
2024/01/04 08:44:59;;;;;;;33.73;22.67;;;6.30;99.90;;;;;;5050589;28;20344;-62
2024/01/04 08:47:27;;;;;;;33.63;24.13;;;6.40;99.90;;;;;;5042762;28;21225;-62
2024/01/04 08:50:00;;;;;;;32.67;22.87;;;6.40;99.90;;;;;;5051389;28;20202;-62
2024/01/04 08:52:29;;;;;;;32.17;21.93;;;6.50;99.90;;;;;;5037574;28;20534;-63
2024/01/04 08:54:57;;;;;;;31.20;23.63;;;6.60;99.90;;;;;;5052221;28;20210;-63
2024/01/04 08:57:26;;;;;;;35.50;23.83;;;6.70;99.90;;;;;;5031566;28;20535;-62
2024/01/04 08:59:55;;;;;;;38.83;24.03;;;6.80;99.90;;;;;;5035541;28;20297;-62
2024/01/04 09:02:23;;;;;;;30.57;22.87;;;6.90;99.90;;;;;;5050692;28;20586;-62
2024/01/04 09:04:51;;;;;;;33.33;23.20;;;7.00;99.90;;;;;;5051486;28;20528;-62
2024/01/04 09:07:19;;;;;;;35.80;21.73;;;7.10;99.90;;;;;;5034145;28;20262;-62
2024/01/04 09:09:48;;;;;;;31.90;22.43;;;7.20;99.90;;;;;;5036467;28;20551;-62
2024/01/04 09:12:16;;;;;;;30.23;22.77;;;7.30;99.90;;;;;;5032929;28;20238;-62
2024/01/04 09:14:46;;;;;;;34.67;23.03;;;7.40;99.90;;;;;;5032436;28;20246;-62
2024/01/04 09:17:14;;;;;;;33.13;22.10;;;7.50;99.90;;;;;;5034827;28;20211;-62
2024/01/04 09:19:43;;;;;;;32.27;21.40;;;7.50;99.90;;;;;;5033706;28;20563;-62
2024/01/04 09:22:13;;;;;;;32.27;23.83;;;7.60;99.90;;;;;;5017145;28;20200;-62
2024/01/04 09:24:41;;;;;;;32.73;22.63;;;7.70;99.90;;;;;;5032575;28;20563;-62
2024/01/04 09:27:12;;;;;;;29.20;21.93;;;7.70;99.90;;;;;;5031394;28;20291;-62
2024/01/04 09:29:41;;;;;;;30.30;21.00;;;7.80;99.90;;;;;;5032030;28;20608;-63
2024/01/04 09:32:09;;;;;;;32.33;22.83;;;7.80;99.90;;;;;;5031686;28;20208;-63
2024/01/04 09:34:38;;;;;;;37.40;24.73;;;7.90;99.90;;;;;;5033305;28;20263;-62
2024/01/04 09:37:06;;;;;;;33.63;22.93;;;8.00;99.90;;;;;;5034639;28;20535;-62
2024/01/04 09:39:35;;;;;;;36.50;23.17;;;8.10;99.90;;;;;;5032945;28;20219;-63
2024/01/04 09:42:06;;;;;;;41.47;23.97;;;8.10;99.90;;;;;;5033789;28;20571;-63
2024/01/04 09:44:36;;;;;;;31.40;23.03;;;8.20;99.90;;;;;;5030275;28;20574;-63
2024/01/04 09:47:10;;;;;;;37.27;23.67;;;8.30;99.90;;;;;;5032429;28;20204;-62
2024/01/04 09:49:39;;;;;;;39.37;22.97;;;8.30;99.90;;;;;;5035297;28;20200;-62
2024/01/04 09:52:09;;;;;;;34.63;23.40;;;8.40;99.90;;;;;;5039942;28;20199;-62
2024/01/04 09:54:42;;;;;;;36.87;22.93;;;8.50;99.90;;;;;;5035194;28;20201;-62
2024/01/04 09:57:10;;;;;;;29.90;22.53;;;8.60;99.90;;;;;;5032263;28;20611;-62
2024/01/04 09:59:39;;;;;;;34.73;23.27;;;8.60;99.90;;;;;;5019898;28;20199;-62
2024/01/04 10:02:11;;;;;;;38.47;23.23;;;8.70;99.90;;;;;;5030507;28;20718;-62
2024/01/04 10:04:44;;;;;;;34.10;21.67;;;8.80;99.90;;;;;;5034881;28;20222;-62
2024/01/04 10:07:21;;;;;;;34.60;23.00;;;8.80;99.90;;;;;;5031268;28;20206;-63
2024/01/04 10:10:01;;;;;;;32.70;23.77;;;8.90;99.90;;;;;;5033972;28;20215;-62
2024/01/04 10:12:32;;;;;;;38.37;22.50;;;9.00;99.90;;;;;;5031971;28;20235;-62
2024/01/04 10:15:01;;;;;;;32.90;22.40;;;9.10;99.90;;;;;;5033164;28;20210;-63
2024/01/04 10:17:32;;;;;;;36.13;22.40;;;9.20;99.90;;;;;;5034766;28;20240;-62
2024/01/04 10:20:03;;;;;;;36.33;24.23;;;9.30;99.90;;;;;;5025727;28;20555;-63
2024/01/04 10:22:32;;;;;;;33.60;21.17;;;9.40;99.90;;;;;;5026844;28;20219;-62
2024/01/04 10:25:12;;;;;;;33.77;22.63;;;9.50;99.90;;;;;;5030079;28;20290;-62
2024/01/04 10:27:40;;;;;;;31.27;21.67;;;9.60;99.90;;;;;;5032989;28;20196;-63
2024/01/04 10:30:10;;;;;;;30.50;21.73;;;9.60;99.90;;;;;;5032480;28;20545;-62
2024/01/04 10:32:39;;;;;;;30.30;20.67;;;9.70;99.90;;;;;;5033501;28;20208;-62
2024/01/04 10:35:08;;;;;;;31.33;21.10;;;9.80;99.90;;;;;;5033768;28;20260;-63
2024/01/04 10:37:37;;;;;;;28.57;21.13;;;9.80;99.90;;;;;;5032281;28;20202;-63
2024/01/04 10:40:09;;;;;;;28.33;19.30;;;10.00;99.90;;;;;;5032844;28;20295;-62
2024/01/04 10:42:38;;;;;;;31.93;20.77;;;10.00;99.90;;;;;;5031443;28;20235;-62
2024/01/04 10:45:10;;;;;;;28.13;19.93;;;10.10;99.90;;;;;;5033515;28;20629;-62
2024/01/04 10:47:41;;;;;;;28.57;19.87;;;10.20;99.90;;;;;;5032637;28;20652;-63
2024/01/04 10:50:12;;;;;;;32.57;19.67;;;10.20;99.90;;;;;;5034456;28;20252;-63
2024/01/04 10:52:45;;;;;;;31.20;20.83;;;10.30;99.90;;;;;;5015062;28;20230;-63
2024/01/04 10:55:15;;;;;;;24.47;19.20;;;10.40;99.90;;;;;;5014381;28;20210;-63
2024/01/04 10:57:44;;;;;;;27.50;20.17;;;10.50;99.90;;;;;;5047225;28;20279;-62
2024/01/04 11:00:13;;;;;;;30.33;20.73;;;10.60;99.90;;;;;;5040287;28;20551;-62
2024/01/04 11:02:43;;;;;;;29.03;17.57;;;10.70;99.90;;;;;;5016475;28;20631;-62
2024/01/04 11:05:12;;;;;;;26.03;18.70;;;10.80;99.90;;;;;;5036951;28;20758;-62
2024/01/04 11:07:40;;;;;;;26.90;18.53;;;10.90;99.50;;;;;;5041347;28;20714;-64
2024/01/04 11:10:10;;;;;;;30.57;19.73;;;11.00;99.40;;;;;;5025755;28;20598;-63
2024/01/04 11:12:40;;;;;;;28.13;18.07;;;11.10;99.30;;;;;;5045611;28;20577;-63
2024/01/04 11:15:12;;;;;;;26.30;18.00;;;11.20;99.20;;;;;;5051318;28;20286;-62
2024/01/04 11:18:01;;;;;;;28.20;18.10;;;11.30;99.10;;;;;;5022436;28;20605;-62
2024/01/04 11:20:59;;;;;;;26.23;17.47;;;11.40;99.00;;;;;;5053721;28;20202;-63
2024/01/04 11:24:06;;;;;;;24.60;16.13;;;11.60;98.80;;;;;;5051657;28;20618;-63
2024/01/04 11:26:49;;;;;;;23.80;15.50;;;11.70;98.60;;;;;;5051062;28;20261;-63
2024/01/04 11:29:19;;;;;;;26.47;16.50;;;11.80;98.40;;;;;;5034571;28;20205;-62
2024/01/04 11:31:48;;;;;;;25.37;16.37;;;11.90;98.20;;;;;;5035065;28;20548;-63
2024/01/04 11:34:19;;;;;;;22.13;15.20;;;12.00;97.80;;;;;;5037337;28;20204;-62
2024/01/04 11:36:49;;;;;;;25.60;15.83;;;12.10;97.70;;;;;;5036519;28;20296;-63
2024/01/04 11:39:28;;;;;;;22.57;15.00;;;12.20;97.50;;;;;;5017437;28;20420;-63
2024/01/04 11:41:57;;;;;;;30.43;15.63;;;12.30;97.30;;;;;;5017309;28;20614;-62
2024/01/04 11:44:35;;;;;;;20.07;13.70;;;12.40;97.20;;;;;;5032254;28;20216;-63
2024/01/04 11:47:04;;;;;;;20.90;13.93;;;12.50;97.00;;;;;;5048306;28;20510;-62
2024/01/04 11:49:33;;;;;;;22.83;13.63;;;12.60;96.20;;;;;;5051260;28;20197;-63
2024/01/04 11:52:04;;;;;;;24.67;15.33;;;12.70;95.90;;;;;;5032451;28;20582;-63
2024/01/04 11:54:32;;;;;;;25.30;14.20;;;12.70;95.50;;;;;;5050325;28;20226;-63
2024/01/04 11:57:19;;;;;;;19.83;14.43;;;12.80;95.30;;;;;;5021914;28;20225;-63
2024/01/04 11:59:50;;;;;;;18.10;12.47;;;12.80;95.10;;;;;;5017918;28;20544;-63
2024/01/04 12:02:19;;;;;;;19.70;13.50;;;12.90;94.70;;;;;;5050709;28;20205;-63
2024/01/04 12:04:48;;;;;;;20.23;13.53;;;12.90;94.20;;;;;;5027933;28;20212;-63
2024/01/04 12:07:17;;;;;;;19.67;13.03;;;13.00;93.40;;;;;;5048295;28;20198;-63
2024/01/04 12:09:59;;;;;;;19.80;14.23;;;13.00;93.20;;;;;;5019000;28;20540;-63
2024/01/04 12:12:28;;;;;;;18.97;13.73;;;13.00;93.40;;;;;;5045850;28;20259;-63
2024/01/04 12:14:58;;;;;;;18.40;13.17;;;13.00;93.30;;;;;;5028384;28;20562;-63
2024/01/04 12:17:27;;;;;;;19.07;14.13;;;13.10;93.40;;;;;;5030579;28;20298;-62
2024/01/04 12:19:56;;;;;;;19.37;14.17;;;13.10;92.90;;;;;;5030843;28;20764;-63
2024/01/04 12:22:26;;;;;;;20.70;13.43;;;13.20;92.80;;;;;;5032999;28;20521;-63
2024/01/04 12:24:55;;;;;;;21.03;13.90;;;13.20;92.90;;;;;;5036725;28;20735;-62
2024/01/04 12:27:24;;;;;;;17.30;13.17;;;13.20;92.60;;;;;;5035196;28;20595;-63
2024/01/04 12:29:52;;;;;;;20.63;13.50;;;13.20;92.30;;;;;;5028413;28;20516;-62
2024/01/04 12:32:23;;;;;;;18.53;14.03;;;13.20;92.10;;;;;;5034057;28;20207;-62
2024/01/04 12:34:53;;;;;;;17.27;13.93;;;13.20;92.20;;;;;;5029746;28;20514;-62
2024/01/04 12:37:22;;;;;;;19.67;14.03;;;13.30;92.00;;;;;;5029035;28;20187;-62
2024/01/04 12:39:50;;;;;;;21.37;14.33;;;13.30;91.80;;;;;;5032382;28;20185;-63
2024/01/04 12:42:21;;;;;;;23.23;14.90;;;13.30;91.40;;;;;;5034261;28;20279;-63
2024/01/04 12:44:49;;;;;;;17.97;13.37;;;13.40;91.50;;;;;;5036113;28;20658;-62